Terminal Aerodrome Forecast
Issued by NWS Twin Cities, MN

Home | Current Version | Previous Version | Text Only | Print | Product List | Glossary Off
Versions: 1 2 3 4 5 6 7 8 9 10 11 12 13 14 15 16

918
FTUS43 KMPX 040812 AAA
TAFSTC
TAF AMD
KSTC 040812Z 0408/0506 21004KT P6SM OVC050
      TEMPO 0408/0409 4SM -SN
     FM041200 24005KT 3SM -SN BR OVC018
      TEMPO 0413/0417 3/4SM -SN BR OVC006
     FM041700 30008KT P6SM OVC015
     FM041900 30008KT P6SM BKN020
     FM042300 30004KT P6SM FEW020=

USA.gov is the U.S. government's official web portal to all federal, state and local government web resources and services.